createdAt,value
2023-04-15T00:02:18.608Z,99.86
2023-04-15T00:05:22.253Z,99.19
2023-04-15T00:08:25.602Z,99.52
2023-04-15T00:11:28.924Z,99.81
2023-04-15T00:14:32.121Z,98.85
2023-04-15T00:17:38.432Z,99.11
2023-04-15T00:20:42.403Z,98.95
2023-04-15T00:23:45.671Z,99.18
2023-04-15T00:26:49.142Z,98.94
2023-04-15T00:29:54.096Z,98.70
2023-04-15T00:32:56.567Z,98.75
2023-04-15T00:36:01.004Z,98.37
2023-04-15T00:39:06.362Z,98.24
2023-04-15T00:42:10.640Z,98.30
2023-04-15T00:45:13.398Z,97.94
2023-04-15T00:48:17.544Z,98.01
2023-04-15T00:51:20.425Z,98.12
2023-04-15T00:54:24.019Z,98.09
2023-04-15T00:57:28.592Z,98.03
2023-04-15T01:00:31.728Z,98.38
2023-04-15T01:03:36.551Z,98.34
2023-04-15T01:06:40.199Z,98.45
2023-04-15T01:09:43.465Z,98.74
2023-04-15T01:12:47.039Z,98.60
2023-04-15T01:15:51.024Z,98.60
2023-04-15T01:18:56.554Z,98.44
2023-04-15T01:22:02.078Z,98.86
2023-04-15T01:25:11.437Z,98.80
2023-04-15T01:28:13.960Z,98.92
2023-04-15T01:31:18.220Z,98.74
2023-04-15T01:34:21.132Z,98.56
2023-04-15T01:37:25.291Z,98.51
2023-04-15T01:40:27.974Z,98.46
2023-04-15T01:43:31.455Z,98.27
2023-04-15T01:46:37.154Z,98.64
2023-04-15T01:49:40.566Z,98.48
2023-04-15T01:52:45.957Z,98.56
2023-04-15T01:55:49.611Z,98.65
2023-04-15T01:58:53.191Z,98.59
2023-04-15T02:01:56.315Z,98.77
2023-04-15T02:04:59.481Z,98.58
2023-04-15T02:08:05.381Z,98.62
2023-04-15T02:11:08.873Z,98.21
2023-04-15T02:14:11.829Z,98.19
2023-04-15T02:17:14.611Z,98.51
2023-04-15T02:20:21.830Z,98.09
2023-04-15T02:23:24.905Z,97.88
2023-04-15T02:26:41.244Z,98.09
2023-04-15T02:29:45.820Z,97.94
2023-04-15T02:32:48.908Z,98.09
2023-04-15T02:35:53.284Z,97.89
2023-04-15T02:38:55.811Z,97.97
2023-04-15T02:42:00.737Z,98.21
2023-04-15T02:45:03.684Z,98.43
2023-04-15T02:48:07.154Z,98.47
2023-04-15T02:51:20.038Z,98.46
2023-04-15T02:54:23.962Z,98.36
2023-04-15T02:57:39.333Z,98.74
2023-04-15T03:00:42.595Z,98.62
2023-04-15T03:03:46.218Z,98.57
2023-04-15T03:06:50.114Z,99.02
2023-04-15T03:09:54.555Z,99.03
2023-04-15T03:13:04.916Z,99.33
2023-04-15T03:16:09.708Z,99.25
2023-04-15T03:19:13.185Z,99.59
2023-04-15T03:22:17.231Z,99.36
2023-04-15T03:25:20.581Z,99.66
2023-04-15T03:28:25.852Z,99.22
2023-04-15T03:31:31.095Z,99.77
2023-04-15T03:34:33.933Z,99.63
2023-04-15T03:37:36.937Z,99.62
2023-04-15T03:40:43.507Z,99.67
2023-04-15T03:43:48.489Z,99.29
2023-04-15T03:46:51.235Z,99.25
2023-04-15T03:49:55.728Z,99.21
2023-04-15T03:52:58.612Z,99.77
2023-04-15T03:56:02.594Z,99.83
2023-04-15T03:59:05.001Z,99.77
2023-04-15T04:02:08.657Z,99.77
2023-04-15T04:05:13.965Z,99.79
2023-04-15T04:08:16.726Z,100.00
2023-04-15T04:11:19.760Z,99.99
2023-04-15T04:14:29.311Z,99.71
2023-04-15T04:17:40.244Z,99.94
2023-04-15T04:20:43.492Z,99.71
2023-04-15T04:23:47.276Z,99.63
2023-04-15T04:26:51.421Z,99.55
2023-04-15T04:29:54.329Z,99.66
2023-04-15T04:32:57.153Z,99.97
2023-04-15T04:36:00.983Z,99.56
2023-04-15T04:39:05.000Z,99.06
2023-04-15T04:42:07.876Z,98.85
2023-04-15T04:45:14.440Z,98.84
2023-04-15T04:48:20.021Z,98.67
2023-04-15T04:51:28.825Z,98.54
2023-04-15T04:54:32.014Z,98.48
2023-04-15T04:57:36.294Z,98.51
2023-04-15T05:00:43.473Z,98.16
2023-04-15T05:03:48.058Z,97.10
2023-04-15T05:06:51.875Z,96.12
2023-04-15T05:09:54.569Z,95.14
2023-04-15T05:13:01.289Z,95.21
2023-04-15T05:16:08.678Z,95.02
2023-04-15T05:19:12.311Z,94.91
2023-04-15T05:22:17.250Z,94.10
2023-04-15T05:25:27.960Z,93.50
2023-04-15T05:28:32.850Z,93.66
2023-04-15T05:31:37.843Z,94.03
2023-04-15T05:34:41.096Z,94.67
2023-04-15T05:37:44.336Z,95.25
2023-04-15T05:40:50.675Z,95.44
2023-04-15T05:43:58.958Z,95.55
2023-04-15T05:47:03.692Z,95.44
2023-04-15T05:50:07.466Z,95.27
2023-04-15T05:53:10.648Z,94.88
2023-04-15T05:56:13.527Z,94.98
2023-04-15T05:59:21.388Z,94.74
2023-04-15T06:02:32.072Z,93.41
2023-04-15T06:05:37.400Z,86.36
2023-04-15T06:08:43.251Z,86.14
2023-04-15T06:11:54.646Z,79.67
2023-04-15T06:15:04.849Z,79.51
2023-04-15T06:18:08.002Z,76.54
2023-04-15T06:21:19.157Z,76.74
2023-04-15T06:24:23.612Z,73.45
2023-04-15T06:27:30.076Z,72.47
2023-04-15T06:30:41.891Z,69.56
2023-04-15T06:33:45.636Z,71.49
2023-04-15T06:36:49.856Z,69.12
2023-04-15T06:39:54.635Z,72.30
2023-04-15T06:43:16.866Z,75.39
2023-04-15T06:46:20.375Z,76.27
2023-04-15T06:49:31.897Z,75.81
2023-04-15T06:52:42.852Z,75.11
2023-04-15T06:55:59.743Z,73.63
2023-04-15T06:59:06.936Z,67.78
2023-04-15T07:02:16.933Z,62.50
2023-04-15T07:05:23.922Z,61.74
2023-04-15T07:08:35.526Z,68.37
2023-04-15T07:11:41.315Z,64.96
2023-04-15T07:14:47.969Z,65.43
2023-04-15T07:17:54.878Z,63.67
2023-04-15T07:21:02.814Z,58.83
2023-04-15T07:24:08.805Z,60.25
2023-04-15T07:27:12.903Z,57.69
2023-04-15T07:30:19.784Z,56.01
2023-04-15T07:33:27.949Z,58.23
2023-04-15T07:36:37.030Z,63.62
2023-04-15T07:39:46.712Z,61.10
2023-04-15T07:42:51.841Z,62.30
2023-04-15T07:45:55.734Z,63.54
2023-04-15T07:49:00.931Z,62.95
2023-04-15T07:52:13.301Z,59.49
2023-04-15T07:55:19.397Z,57.07
2023-04-15T07:58:24.875Z,58.27
2023-04-15T08:01:28.438Z,60.49
2023-04-15T08:04:34.909Z,62.87
2023-04-15T08:07:39.867Z,65.14
2023-04-15T08:10:45.467Z,65.00
2023-04-15T08:13:51.897Z,63.81
2023-04-15T08:17:05.801Z,60.11
2023-04-15T08:20:14.849Z,61.69
2023-04-15T08:23:18.448Z,62.25
2023-04-15T08:26:30.705Z,63.68
2023-04-15T08:29:38.854Z,65.00
2023-04-15T08:32:51.849Z,63.79
2023-04-15T08:36:09.359Z,60.84
2023-04-15T08:39:14.504Z,59.80
2023-04-15T08:42:37.530Z,59.23
2023-04-15T08:45:40.641Z,59.23
2023-04-15T08:48:50.381Z,61.31
2023-04-15T08:52:09.809Z,63.65
2023-04-15T08:55:14.917Z,65.03
2023-04-15T08:58:19.183Z,65.34
2023-04-15T09:01:24.749Z,65.57
2023-04-15T09:04:32.154Z,64.55
2023-04-15T09:07:36.855Z,61.74
2023-04-15T09:10:41.289Z,61.55
2023-04-15T09:13:48.851Z,61.82
2023-04-15T09:17:04.792Z,63.16
2023-04-15T09:20:14.852Z,64.81
2023-04-15T09:23:28.248Z,63.80
2023-04-15T09:26:41.824Z,62.79
2023-04-15T09:30:01.717Z,63.74
2023-04-15T09:33:08.455Z,63.82
2023-04-15T09:36:21.263Z,61.19
2023-04-15T09:39:47.787Z,61.18
2023-04-15T09:42:57.854Z,62.76
2023-04-15T09:46:01.471Z,64.40
2023-04-15T09:49:10.832Z,64.91
2023-04-15T09:52:19.106Z,66.16
2023-04-15T09:55:24.199Z,66.92
2023-04-15T09:58:36.948Z,68.18
2023-04-15T10:01:44.952Z,67.64
2023-04-15T10:04:51.858Z,67.95
2023-04-15T10:08:03.920Z,66.77
2023-04-15T10:11:09.027Z,66.48
2023-04-15T10:14:16.770Z,65.40
2023-04-15T10:17:34.051Z,64.48
2023-04-15T10:20:44.733Z,65.12
2023-04-15T10:23:56.815Z,65.19
2023-04-15T10:27:04.588Z,64.63
2023-04-15T10:30:10.801Z,66.72
2023-04-15T10:33:28.852Z,68.22
2023-04-15T10:36:35.148Z,70.18
2023-04-15T10:39:46.822Z,72.08
2023-04-15T10:42:57.891Z,74.38
2023-04-15T10:46:13.840Z,74.21
2023-04-15T10:49:33.024Z,74.13
2023-04-15T10:52:43.027Z,72.32
2023-04-15T10:56:06.743Z,71.19
2023-04-15T10:59:16.510Z,71.44
2023-04-15T11:02:23.190Z,71.53
2023-04-15T11:05:53.880Z,71.44
2023-04-15T11:09:09.814Z,73.50
2023-04-15T11:12:16.365Z,73.31
2023-04-15T11:15:43.932Z,73.81
2023-04-15T11:18:56.748Z,73.27
2023-04-15T11:22:18.932Z,73.45
2023-04-15T11:25:33.853Z,73.71
2023-04-15T11:28:45.240Z,71.88
2023-04-15T11:31:49.936Z,72.02
2023-04-15T11:35:05.776Z,71.53
2023-04-15T11:38:18.766Z,71.39
2023-04-15T11:41:29.953Z,70.19
2023-04-15T11:44:46.889Z,71.15
2023-04-15T11:47:56.074Z,71.83
2023-04-15T11:51:04.118Z,72.37
2023-04-15T11:54:07.516Z,72.00
2023-04-15T11:57:14.083Z,70.39
2023-04-15T12:00:26.889Z,70.47
2023-04-15T12:03:31.822Z,70.11
2023-04-15T12:06:47.808Z,68.81
2023-04-15T12:10:00.073Z,68.63
2023-04-15T12:13:10.809Z,67.33
2023-04-15T12:16:19.947Z,67.15
2023-04-15T12:19:50.747Z,67.75
2023-04-15T12:23:06.865Z,68.78
2023-04-15T12:26:11.620Z,68.07
2023-04-15T12:29:18.119Z,67.28
2023-04-15T12:32:25.047Z,67.49
2023-04-15T12:35:29.849Z,67.99
2023-04-15T12:38:35.832Z,67.88
2023-04-15T12:41:41.408Z,67.68
2023-04-15T12:44:58.863Z,66.56
2023-04-15T12:48:03.840Z,67.63
2023-04-15T12:51:08.741Z,67.03
2023-04-15T12:54:12.882Z,67.94
2023-04-15T12:57:28.710Z,66.91
2023-04-15T13:00:41.706Z,66.93
2023-04-15T13:03:46.235Z,67.83
2023-04-15T13:07:03.817Z,68.29
2023-04-15T13:10:21.828Z,68.25
2023-04-15T13:13:31.688Z,68.38
2023-04-15T13:16:42.765Z,68.75
2023-04-15T13:19:48.166Z,69.12
2023-04-15T13:22:54.781Z,69.56
2023-04-15T13:26:03.055Z,68.81
2023-04-15T13:29:10.833Z,68.38
2023-04-15T13:32:28.160Z,68.22
2023-04-15T13:35:36.794Z,69.81
2023-04-15T13:38:41.016Z,69.70
2023-04-15T13:41:46.861Z,68.39
2023-04-15T13:44:52.793Z,67.70
2023-04-15T13:48:03.959Z,68.11
2023-04-15T13:51:08.096Z,69.89
2023-04-15T13:54:37.781Z,71.32
2023-04-15T13:57:43.051Z,70.67
2023-04-15T14:00:54.050Z,70.49
2023-04-15T14:04:05.342Z,70.28
2023-04-15T14:07:12.853Z,70.79
2023-04-15T14:10:20.852Z,72.00
2023-04-15T14:13:24.210Z,71.29
2023-04-15T14:16:38.848Z,71.51
2023-04-15T14:19:43.291Z,71.29
2023-04-15T14:22:53.264Z,70.19
2023-04-15T14:26:04.705Z,69.91
2023-04-15T14:29:08.862Z,69.56
2023-04-15T14:32:16.778Z,68.09
2023-04-15T14:35:28.889Z,67.80
2023-04-15T14:38:33.863Z,68.63
2023-04-15T14:41:41.933Z,69.72
2023-04-15T14:44:46.460Z,70.23
2023-04-15T14:47:57.838Z,70.66
2023-04-15T14:51:10.750Z,70.85
2023-04-15T14:54:15.826Z,70.89
2023-04-15T14:57:22.965Z,71.87
2023-04-15T15:00:28.393Z,72.64
2023-04-15T15:03:34.856Z,72.44
2023-04-15T15:06:39.740Z,74.91
2023-04-15T15:09:45.887Z,76.64
2023-04-15T15:13:01.917Z,77.43
2023-04-15T15:16:13.839Z,77.47
2023-04-15T15:19:19.835Z,77.10
2023-04-15T15:22:26.280Z,75.04
2023-04-15T15:25:36.014Z,75.46
2023-04-15T15:28:51.276Z,76.58
2023-04-15T15:32:00.901Z,76.37
2023-04-15T15:35:04.971Z,78.12
2023-04-15T15:38:11.092Z,79.00
2023-04-15T15:41:18.290Z,79.53
2023-04-15T15:44:24.728Z,80.21
2023-04-15T15:47:28.357Z,80.57
2023-04-15T15:50:38.007Z,80.36
2023-04-15T15:54:00.745Z,80.51
2023-04-15T15:57:07.019Z,80.03
2023-04-15T16:00:13.217Z,80.16
2023-04-15T16:03:17.639Z,80.81
2023-04-15T16:06:27.899Z,80.52
2023-04-15T16:09:35.811Z,81.71
2023-04-15T16:12:42.388Z,83.83
2023-04-15T16:15:54.997Z,86.34
2023-04-15T16:19:00.196Z,88.18
2023-04-15T16:22:05.765Z,88.74
2023-04-15T16:25:16.300Z,89.06
2023-04-15T16:28:27.418Z,88.44
2023-04-15T16:31:41.781Z,90.98
2023-04-15T16:34:58.831Z,90.53
2023-04-15T16:38:04.795Z,92.43
2023-04-15T16:41:14.750Z,91.74
2023-04-15T16:44:24.716Z,92.44
2023-04-15T16:47:29.868Z,91.36
2023-04-15T16:50:42.765Z,91.73
2023-04-15T16:53:51.041Z,91.72
2023-04-15T16:57:03.786Z,91.09
2023-04-15T17:00:14.155Z,91.83
2023-04-15T17:03:19.996Z,92.62
2023-04-15T17:06:34.575Z,93.25
2023-04-15T17:09:46.058Z,92.96
2023-04-15T17:13:00.202Z,93.48
2023-04-15T17:16:03.170Z,93.91
2023-04-15T17:19:07.873Z,93.66
2023-04-15T17:22:25.839Z,94.19
2023-04-15T17:25:35.504Z,93.80
2023-04-15T17:28:52.763Z,93.42
2023-04-15T17:32:13.630Z,93.72
2023-04-15T17:35:23.914Z,94.53
2023-04-15T17:38:30.330Z,94.83
2023-04-15T17:41:40.219Z,94.30
2023-04-15T17:44:52.858Z,94.43
2023-04-15T17:48:08.787Z,94.46
2023-04-15T17:51:21.849Z,94.15
2023-04-15T17:54:43.957Z,94.28
2023-04-15T17:57:57.909Z,94.45
2023-04-15T18:01:05.578Z,94.07
2023-04-15T18:04:17.922Z,94.70
2023-04-15T18:07:37.718Z,95.27
2023-04-15T18:10:48.383Z,95.26
2023-04-15T18:13:54.728Z,95.40
2023-04-15T18:17:00.828Z,95.34
2023-04-15T18:20:08.102Z,95.35
2023-04-15T18:23:14.878Z,95.23
2023-04-15T18:26:20.781Z,95.65
2023-04-15T18:29:30.973Z,96.31
2023-04-15T18:32:42.820Z,96.53
2023-04-15T18:35:57.752Z,96.49
2023-04-15T18:39:10.040Z,96.75
2023-04-15T18:42:29.023Z,96.89
2023-04-15T18:45:39.143Z,96.70
2023-04-15T18:48:51.430Z,96.66
2023-04-15T18:51:57.755Z,96.42
2023-04-15T18:55:16.518Z,96.79
2023-04-15T18:58:27.997Z,97.12
2023-04-15T19:02:00.380Z,97.21
2023-04-15T19:05:10.216Z,96.75
2023-04-15T19:08:13.984Z,96.36
2023-04-15T19:11:29.919Z,96.23
2023-04-15T19:14:43.805Z,96.18
2023-04-15T19:17:51.337Z,96.03
2023-04-15T19:20:57.610Z,96.12
2023-04-15T19:24:01.884Z,96.09
2023-04-15T19:27:18.778Z,96.02
2023-04-15T19:30:25.970Z,96.58
2023-04-15T19:33:35.781Z,97.78
2023-04-15T19:36:42.918Z,97.51
2023-04-15T19:39:47.741Z,96.95
2023-04-15T19:42:55.446Z,96.98
2023-04-15T19:46:01.754Z,96.85
2023-04-15T19:49:07.339Z,97.35
2023-04-15T19:52:19.803Z,97.54
2023-04-15T19:55:28.362Z,97.80
2023-04-15T19:58:33.807Z,98.58
2023-04-15T20:01:41.461Z,98.44
2023-04-15T20:04:52.840Z,97.93
2023-04-15T20:08:01.774Z,97.58
2023-04-15T20:11:05.847Z,97.63
2023-04-15T20:14:14.632Z,97.28
2023-04-15T20:17:19.204Z,97.71
2023-04-15T20:20:24.796Z,97.82
2023-04-15T20:23:31.242Z,97.13
2023-04-15T20:26:34.249Z,97.07
2023-04-15T20:29:42.319Z,97.61
2023-04-15T20:32:55.485Z,97.44
2023-04-15T20:36:02.983Z,97.47
2023-04-15T20:39:07.022Z,97.48
2023-04-15T20:42:12.996Z,97.35
2023-04-15T20:45:23.745Z,97.79
2023-04-15T20:48:27.757Z,97.59
2023-04-15T20:51:38.765Z,97.94
2023-04-15T20:54:42.500Z,98.70
2023-04-15T20:57:45.661Z,99.45
2023-04-15T21:00:51.867Z,99.15
2023-04-15T21:03:58.067Z,99.04
2023-04-15T21:07:06.862Z,99.59
2023-04-15T21:10:12.355Z,100.00
2023-04-15T21:13:17.806Z,100.00
2023-04-15T21:16:22.107Z,100.00
2023-04-15T21:19:25.186Z,100.00
2023-04-15T21:22:31.917Z,99.88
2023-04-15T21:25:40.708Z,99.88
2023-04-15T21:28:48.835Z,99.37
2023-04-15T21:31:52.966Z,99.18
2023-04-15T21:34:58.975Z,98.81
2023-04-15T21:38:02.932Z,98.56
2023-04-15T21:41:09.552Z,98.81
2023-04-15T21:44:15.030Z,98.63
2023-04-15T21:47:19.467Z,98.64
2023-04-15T21:50:29.179Z,98.51
2023-04-15T21:53:31.995Z,98.44
2023-04-15T21:56:37.842Z,98.64
2023-04-15T21:59:48.679Z,98.75
2023-04-15T22:02:52.817Z,98.84
2023-04-15T22:05:57.428Z,98.72
2023-04-15T22:09:00.403Z,98.97
2023-04-15T22:12:04.056Z,98.90
2023-04-15T22:15:07.568Z,98.68
2023-04-15T22:18:13.071Z,98.56
2023-04-15T22:21:17.036Z,98.57
2023-04-15T22:24:32.091Z,98.49
2023-04-15T22:27:47.280Z,98.55
2023-04-15T22:30:54.133Z,98.45
2023-04-15T22:33:58.930Z,98.42
2023-04-15T22:37:07.821Z,98.48
2023-04-15T22:40:11.492Z,98.45
2023-04-15T22:43:16.796Z,98.67
2023-04-15T22:46:20.064Z,98.57
2023-04-15T22:49:22.902Z,98.40
2023-04-15T22:52:30.450Z,98.78
2023-04-15T22:55:35.633Z,99.01
2023-04-15T22:58:38.901Z,99.16
2023-04-15T23:01:43.219Z,99.05
2023-04-15T23:04:46.461Z,99.45
2023-04-15T23:07:49.178Z,99.42
2023-04-15T23:10:52.737Z,99.49
2023-04-15T23:13:56.663Z,99.35
2023-04-15T23:17:00.685Z,99.19
2023-04-15T23:20:04.805Z,99.14
2023-04-15T23:23:08.507Z,99.07
2023-04-15T23:26:11.670Z,98.87
2023-04-15T23:29:14.245Z,99.09
2023-04-15T23:32:18.000Z,99.31
2023-04-15T23:35:20.660Z,99.14
2023-04-15T23:38:24.095Z,99.34
2023-04-15T23:41:27.810Z,99.34
2023-04-15T23:44:32.020Z,99.14
2023-04-15T23:47:36.951Z,99.43
2023-04-15T23:50:41.107Z,99.80
2023-04-15T23:53:46.013Z,99.79
2023-04-15T23:56:50.084Z,100.00
2023-04-15T23:59:54.049Z,100.00
